sensor_id;sensor_type;location;lat;lon;timestamp;temperature;humidity
364;DHT22;173;48.718;9.274;2022-09-01T00:01:39;16.00;99.50
364;DHT22;173;48.718;9.274;2022-09-01T00:04:14;16.00;99.50
364;DHT22;173;48.718;9.274;2022-09-01T00:06:48;16.00;99.50
364;DHT22;173;48.718;9.274;2022-09-01T00:09:22;16.10;99.50
364;DHT22;173;48.718;9.274;2022-09-01T00:11:55;16.00;99.50
364;DHT22;173;48.718;9.274;2022-09-01T00:14:30;16.00;99.50
364;DHT22;173;48.718;9.274;2022-09-01T00:17:04;16.00;99.50
364;DHT22;173;48.718;9.274;2022-09-01T00:19:34;16.00;99.50
364;DHT22;173;48.718;9.274;2022-09-01T00:22:07;16.00;99.50
364;DHT22;173;48.718;9.274;2022-09-01T00:24:39;16.00;99.50
364;DHT22;173;48.718;9.274;2022-09-01T00:27:11;16.00;99.50
364;DHT22;173;48.718;9.274;2022-09-01T00:29:43;16.00;99.50
364;DHT22;173;48.718;9.274;2022-09-01T00:32:15;15.90;99.50
364;DHT22;173;48.718;9.274;2022-09-01T00:34:46;16.00;99.50
364;DHT22;173;48.718;9.274;2022-09-01T00:37:18;16.00;99.50
364;DHT22;173;48.718;9.274;2022-09-01T00:39:50;16.00;99.50
364;DHT22;173;48.718;9.274;2022-09-01T00:42:22;15.90;99.50
364;DHT22;173;48.718;9.274;2022-09-01T00:44:54;15.90;99.50
364;DHT22;173;48.718;9.274;2022-09-01T00:47:26;15.80;99.50
364;DHT22;173;48.718;9.274;2022-09-01T00:49:58;15.80;99.50
364;DHT22;173;48.718;9.274;2022-09-01T00:52:35;15.70;99.50
364;DHT22;173;48.718;9.274;2022-09-01T00:55:20;15.60;99.50
364;DHT22;173;48.718;9.274;2022-09-01T00:57:53;15.60;99.50
364;DHT22;173;48.718;9.274;2022-09-01T01:00:29;15.60;99.50
364;DHT22;173;48.718;9.274;2022-09-01T01:03:03;15.70;99.50
364;DHT22;173;48.718;9.274;2022-09-01T01:05:40;15.70;99.50
364;DHT22;173;48.718;9.274;2022-09-01T01:08:16;15.70;99.50
364;DHT22;173;48.718;9.274;2022-09-01T01:10:48;15.70;99.50
364;DHT22;173;48.718;9.274;2022-09-01T01:13:20;15.70;99.50
364;DHT22;173;48.718;9.274;2022-09-01T01:17:50;15.60;99.50
364;DHT22;173;48.718;9.274;2022-09-01T01:20:25;15.60;99.50
364;DHT22;173;48.718;9.274;2022-09-01T01:23:19;15.60;99.50
364;DHT22;173;48.718;9.274;2022-09-01T01:26:02;15.60;99.50
364;DHT22;173;48.718;9.274;2022-09-01T01:28:39;15.70;99.50
364;DHT22;173;48.718;9.274;2022-09-01T01:31:17;15.60;99.50
364;DHT22;173;48.718;9.274;2022-09-01T01:34:25;15.60;99.50
364;DHT22;173;48.718;9.274;2022-09-01T01:36:57;15.60;99.50
364;DHT22;173;48.718;9.274;2022-09-01T01:39:30;15.50;99.50
364;DHT22;173;48.718;9.274;2022-09-01T01:42:02;15.50;99.50
364;DHT22;173;48.718;9.274;2022-09-01T01:44:37;15.50;99.50
364;DHT22;173;48.718;9.274;2022-09-01T01:47:11;15.50;99.50
364;DHT22;173;48.718;9.274;2022-09-01T01:49:45;15.50;99.50
364;DHT22;173;48.718;9.274;2022-09-01T01:52:17;15.40;99.50
364;DHT22;173;48.718;9.274;2022-09-01T01:54:49;15.40;99.50
364;DHT22;173;48.718;9.274;2022-09-01T01:57:22;15.40;99.50
364;DHT22;173;48.718;9.274;2022-09-01T01:59:55;15.40;99.50
364;DHT22;173;48.718;9.274;2022-09-01T02:02:28;15.30;99.50
364;DHT22;173;48.718;9.274;2022-09-01T02:05:00;15.30;99.50
364;DHT22;173;48.718;9.274;2022-09-01T02:07:33;15.20;99.50
364;DHT22;173;48.718;9.274;2022-09-01T02:10:07;15.30;99.50
364;DHT22;173;48.718;9.274;2022-09-01T02:12:38;15.20;99.50
364;DHT22;173;48.718;9.274;2022-09-01T02:15:10;15.30;99.50
364;DHT22;173;48.718;9.274;2022-09-01T02:17:42;15.30;99.50
364;DHT22;173;48.718;9.274;2022-09-01T02:20:15;15.30;99.50
364;DHT22;173;48.718;9.274;2022-09-01T02:22:48;15.20;99.50
364;DHT22;173;48.718;9.274;2022-09-01T02:25:22;15.20;99.50
364;DHT22;173;48.718;9.274;2022-09-01T02:27:54;15.20;99.50
364;DHT22;173;48.718;9.274;2022-09-01T02:30:29;15.20;99.50
364;DHT22;173;48.718;9.274;2022-09-01T02:33:01;15.20;99.50
364;DHT22;173;48.718;9.274;2022-09-01T02:35:40;15.20;99.50
364;DHT22;173;48.718;9.274;2022-09-01T02:38:08;15.10;99.50
364;DHT22;173;48.718;9.274;2022-09-01T02:40:49;15.10;99.50
364;DHT22;173;48.718;9.274;2022-09-01T02:43:18;15.10;99.50
364;DHT22;173;48.718;9.274;2022-09-01T02:45:54;15.10;99.50
364;DHT22;173;48.718;9.274;2022-09-01T02:48:30;15.00;99.50
364;DHT22;173;48.718;9.274;2022-09-01T02:51:06;15.00;99.50
364;DHT22;173;48.718;9.274;2022-09-01T02:53:42;14.90;99.50
364;DHT22;173;48.718;9.274;2022-09-01T02:56:21;14.90;99.50
364;DHT22;173;48.718;9.274;2022-09-01T02:58:54;14.90;99.50
364;DHT22;173;48.718;9.274;2022-09-01T03:01:30;14.90;99.50
364;DHT22;173;48.718;9.274;2022-09-01T03:04:04;14.80;99.50
364;DHT22;173;48.718;9.274;2022-09-01T03:06:38;14.80;99.50
364;DHT22;173;48.718;9.274;2022-09-01T03:09:13;14.80;99.50
364;DHT22;173;48.718;9.274;2022-09-01T03:11:49;14.80;99.50
364;DHT22;173;48.718;9.274;2022-09-01T03:14:22;14.80;99.50
364;DHT22;173;48.718;9.274;2022-09-01T03:16:56;14.80;99.50
364;DHT22;173;48.718;9.274;2022-09-01T03:19:28;14.80;99.50
364;DHT22;173;48.718;9.274;2022-09-01T03:22:02;14.70;99.50
364;DHT22;173;48.718;9.274;2022-09-01T03:24:34;14.70;99.50
364;DHT22;173;48.718;9.274;2022-09-01T03:27:06;14.70;99.50
364;DHT22;173;48.718;9.274;2022-09-01T03:29:38;14.60;99.50
364;DHT22;173;48.718;9.274;2022-09-01T03:32:10;14.60;99.50
364;DHT22;173;48.718;9.274;2022-09-01T03:34:42;14.60;99.50
364;DHT22;173;48.718;9.274;2022-09-01T03:37:14;14.60;99.50
364;DHT22;173;48.718;9.274;2022-09-01T03:39:47;14.60;99.50
364;DHT22;173;48.718;9.274;2022-09-01T03:42:19;14.60;99.50
364;DHT22;173;48.718;9.274;2022-09-01T03:44:53;14.60;99.50
364;DHT22;173;48.718;9.274;2022-09-01T03:47:25;14.60;99.50
364;DHT22;173;48.718;9.274;2022-09-01T03:49:57;14.60;99.50
364;DHT22;173;48.718;9.274;2022-09-01T03:52:29;14.60;99.50
364;DHT22;173;48.718;9.274;2022-09-01T03:55:01;14.70;99.50
364;DHT22;173;48.718;9.274;2022-09-01T03:57:34;14.70;99.50
364;DHT22;173;48.718;9.274;2022-09-01T04:00:09;14.80;99.50
364;DHT22;173;48.718;9.274;2022-09-01T04:02:49;14.80;99.50
364;DHT22;173;48.718;9.274;2022-09-01T04:05:24;14.90;99.50
364;DHT22;173;48.718;9.274;2022-09-01T04:08:00;15.00;99.50
364;DHT22;173;48.718;9.274;2022-09-01T04:10:36;15.00;99.50
364;DHT22;173;48.718;9.274;2022-09-01T04:13:12;14.90;99.50
364;DHT22;173;48.718;9.274;2022-09-01T04:15:46;14.80;99.50
364;DHT22;173;48.718;9.274;2022-09-01T04:18:19;14.80;99.50
364;DHT22;173;48.718;9.274;2022-09-01T04:20:57;14.70;99.50
364;DHT22;173;48.718;9.274;2022-09-01T04:26:10;14.70;99.50
364;DHT22;173;48.718;9.274;2022-09-01T04:28:47;14.70;99.50
364;DHT22;173;48.718;9.274;2022-09-01T04:31:21;14.60;99.50
364;DHT22;173;48.718;9.274;2022-09-01T04:33:53;14.60;99.50
364;DHT22;173;48.718;9.274;2022-09-01T04:36:28;14.70;99.50
364;DHT22;173;48.718;9.274;2022-09-01T04:39:02;14.70;99.50
364;DHT22;173;48.718;9.274;2022-09-01T04:41:43;14.70;99.50
364;DHT22;173;48.718;9.274;2022-09-01T04:44:17;14.80;99.50
364;DHT22;173;48.718;9.274;2022-09-01T04:46:51;14.90;99.50
364;DHT22;173;48.718;9.274;2022-09-01T04:49:22;15.00;99.50
364;DHT22;173;48.718;9.274;2022-09-01T04:51:53;15.20;99.50
364;DHT22;173;48.718;9.274;2022-09-01T04:54:25;15.30;99.50
364;DHT22;173;48.718;9.274;2022-09-01T04:56:58;15.40;99.50
364;DHT22;173;48.718;9.274;2022-09-01T04:59:33;15.40;99.50
364;DHT22;173;48.718;9.274;2022-09-01T05:02:05;15.50;99.50
364;DHT22;173;48.718;9.274;2022-09-01T05:04:35;15.60;99.50
364;DHT22;173;48.718;9.274;2022-09-01T05:07:09;15.70;99.50
364;DHT22;173;48.718;9.274;2022-09-01T05:09:42;15.70;99.50
364;DHT22;173;48.718;9.274;2022-09-01T05:12:14;15.80;99.50
364;DHT22;173;48.718;9.274;2022-09-01T05:14:48;15.80;99.50
364;DHT22;173;48.718;9.274;2022-09-01T05:17:20;15.90;99.50
364;DHT22;173;48.718;9.274;2022-09-01T05:19:54;15.90;99.50
364;DHT22;173;48.718;9.274;2022-09-01T05:22:27;15.90;99.50
364;DHT22;173;48.718;9.274;2022-09-01T05:25:00;15.90;99.50
364;DHT22;173;48.718;9.274;2022-09-01T05:27:34;15.90;99.50
364;DHT22;173;48.718;9.274;2022-09-01T05:30:08;15.80;99.50
364;DHT22;173;48.718;9.274;2022-09-01T05:32:42;15.80;99.50
364;DHT22;173;48.718;9.274;2022-09-01T05:35:16;15.90;99.50
364;DHT22;173;48.718;9.274;2022-09-01T05:37:50;15.90;99.50
364;DHT22;173;48.718;9.274;2022-09-01T05:40:22;15.80;99.50
364;DHT22;173;48.718;9.274;2022-09-01T05:42:54;15.80;99.50
364;DHT22;173;48.718;9.274;2022-09-01T05:45:27;15.80;99.50
364;DHT22;173;48.718;9.274;2022-09-01T05:48:00;15.80;99.50
364;DHT22;173;48.718;9.274;2022-09-01T05:50:32;15.80;99.50
364;DHT22;173;48.718;9.274;2022-09-01T05:53:06;16.00;99.50
364;DHT22;173;48.718;9.274;2022-09-01T05:55:42;16.10;99.50
364;DHT22;173;48.718;9.274;2022-09-01T05:58:16;16.20;99.50
364;DHT22;173;48.718;9.274;2022-09-01T06:00:49;16.30;99.50
364;DHT22;173;48.718;9.274;2022-09-01T06:03:24;16.40;99.50
364;DHT22;173;48.718;9.274;2022-09-01T06:06:00;16.50;99.50
364;DHT22;173;48.718;9.274;2022-09-01T06:08:35;16.60;99.50
364;DHT22;173;48.718;9.274;2022-09-01T06:11:21;16.70;99.50
364;DHT22;173;48.718;9.274;2022-09-01T06:13:55;16.80;99.50
364;DHT22;173;48.718;9.274;2022-09-01T06:16:27;16.70;99.50
364;DHT22;173;48.718;9.274;2022-09-01T06:19:02;16.80;99.50
364;DHT22;173;48.718;9.274;2022-09-01T06:21:34;16.90;99.50
364;DHT22;173;48.718;9.274;2022-09-01T06:24:06;16.90;99.50
364;DHT22;173;48.718;9.274;2022-09-01T06:26:39;16.90;99.50
364;DHT22;173;48.718;9.274;2022-09-01T06:29:12;17.00;99.50
364;DHT22;173;48.718;9.274;2022-09-01T06:31:46;17.10;99.50
364;DHT22;173;48.718;9.274;2022-09-01T06:34:19;17.30;99.50
364;DHT22;173;48.718;9.274;2022-09-01T06:36:52;17.30;99.50
364;DHT22;173;48.718;9.274;2022-09-01T06:39:26;17.30;99.50
364;DHT22;173;48.718;9.274;2022-09-01T06:41:58;17.40;99.50
364;DHT22;173;48.718;9.274;2022-09-01T06:44:30;17.50;99.50
364;DHT22;173;48.718;9.274;2022-09-01T06:47:00;17.50;99.50
364;DHT22;173;48.718;9.274;2022-09-01T06:49:34;17.60;99.50
364;DHT22;173;48.718;9.274;2022-09-01T06:52:08;17.70;99.50
364;DHT22;173;48.718;9.274;2022-09-01T06:54:40;17.80;99.50
364;DHT22;173;48.718;9.274;2022-09-01T06:57:10;17.80;99.50
364;DHT22;173;48.718;9.274;2022-09-01T06:59:42;18.00;99.50
364;DHT22;173;48.718;9.274;2022-09-01T07:02:16;18.40;99.50
364;DHT22;173;48.718;9.274;2022-09-01T07:04:48;18.60;98.80
364;DHT22;173;48.718;9.274;2022-09-01T07:07:20;19.00;99.30
364;DHT22;173;48.718;9.274;2022-09-01T07:09:54;19.30;97.70
364;DHT22;173;48.718;9.274;2022-09-01T07:12:26;19.60;96.70
364;DHT22;173;48.718;9.274;2022-09-01T07:14:58;19.80;95.30
364;DHT22;173;48.718;9.274;2022-09-01T07:17:30;19.70;94.50
364;DHT22;173;48.718;9.274;2022-09-01T07:20:03;19.70;94.10
364;DHT22;173;48.718;9.274;2022-09-01T07:22:37;19.50;93.60
364;DHT22;173;48.718;9.274;2022-09-01T07:25:10;19.10;95.40
364;DHT22;173;48.718;9.274;2022-09-01T07:27:43;19.10;96.40
364;DHT22;173;48.718;9.274;2022-09-01T07:30:20;19.00;96.70
364;DHT22;173;48.718;9.274;2022-09-01T07:32:53;19.00;97.20
364;DHT22;173;48.718;9.274;2022-09-01T07:35:33;19.00;97.60
364;DHT22;173;48.718;9.274;2022-09-01T07:38:06;19.00;97.20
364;DHT22;173;48.718;9.274;2022-09-01T07:40:41;19.10;97.50
364;DHT22;173;48.718;9.274;2022-09-01T07:43:21;19.20;97.30
364;DHT22;173;48.718;9.274;2022-09-01T07:45:57;19.50;96.90
364;DHT22;173;48.718;9.274;2022-09-01T07:48:32;19.60;96.60
364;DHT22;173;48.718;9.274;2022-09-01T07:51:02;19.70;95.90
364;DHT22;173;48.718;9.274;2022-09-01T07:53:35;19.80;95.40
364;DHT22;173;48.718;9.274;2022-09-01T07:56:09;19.90;94.70
364;DHT22;173;48.718;9.274;2022-09-01T07:58:41;19.80;94.00
364;DHT22;173;48.718;9.274;2022-09-01T08:01:16;19.90;94.80
364;DHT22;173;48.718;9.274;2022-09-01T08:03:53;19.90;93.00
364;DHT22;173;48.718;9.274;2022-09-01T08:06:27;19.90;94.50
364;DHT22;173;48.718;9.274;2022-09-01T08:09:00;20.10;94.70
364;DHT22;173;48.718;9.274;2022-09-01T08:11:34;20.30;93.50
364;DHT22;173;48.718;9.274;2022-09-01T08:14:06;20.10;91.50
364;DHT22;173;48.718;9.274;2022-09-01T08:16:38;20.00;93.20
364;DHT22;173;48.718;9.274;2022-09-01T08:19:08;19.80;92.50
364;DHT22;173;48.718;9.274;2022-09-01T08:21:40;19.90;93.90
364;DHT22;173;48.718;9.274;2022-09-01T08:24:12;19.90;93.70
364;DHT22;173;48.718;9.274;2022-09-01T08:26:46;19.90;93.00
364;DHT22;173;48.718;9.274;2022-09-01T08:29:18;19.90;93.60
364;DHT22;173;48.718;9.274;2022-09-01T08:31:50;19.80;93.50
364;DHT22;173;48.718;9.274;2022-09-01T08:34:22;19.90;93.50
364;DHT22;173;48.718;9.274;2022-09-01T08:36:54;19.80;93.10
364;DHT22;173;48.718;9.274;2022-09-01T08:39:25;19.70;91.90
364;DHT22;173;48.718;9.274;2022-09-01T08:45:06;19.70;93.40
364;DHT22;173;48.718;9.274;2022-09-01T08:47:58;19.70;92.00
364;DHT22;173;48.718;9.274;2022-09-01T08:50:33;20.00;91.90
364;DHT22;173;48.718;9.274;2022-09-01T08:53:14;20.20;90.60
364;DHT22;173;48.718;9.274;2022-09-01T08:55:44;20.10;88.20
364;DHT22;173;48.718;9.274;2022-09-01T08:58:19;20.00;86.20
364;DHT22;173;48.718;9.274;2022-09-01T09:01:00;20.00;86.70
364;DHT22;173;48.718;9.274;2022-09-01T09:06:31;20.00;86.30
364;DHT22;173;48.718;9.274;2022-09-01T09:09:07;20.20;87.80
364;DHT22;173;48.718;9.274;2022-09-01T09:14:53;20.40;85.10
364;DHT22;173;48.718;9.274;2022-09-01T09:17:44;20.50;86.50
364;DHT22;173;48.718;9.274;2022-09-01T09:20:20;20.70;86.20
364;DHT22;173;48.718;9.274;2022-09-01T09:22:53;20.50;85.50
364;DHT22;173;48.718;9.274;2022-09-01T09:25:26;20.40;87.60
364;DHT22;173;48.718;9.274;2022-09-01T09:27:58;20.70;86.30
364;DHT22;173;48.718;9.274;2022-09-01T09:30:30;20.70;86.90
364;DHT22;173;48.718;9.274;2022-09-01T09:35:43;21.10;86.00
364;DHT22;173;48.718;9.274;2022-09-01T09:41:05;21.40;80.60
364;DHT22;173;48.718;9.274;2022-09-01T09:46:43;21.20;81.60
364;DHT22;173;48.718;9.274;2022-09-01T09:49:33;21.30;82.20
364;DHT22;173;48.718;9.274;2022-09-01T09:55:17;21.90;79.20
364;DHT22;173;48.718;9.274;2022-09-01T09:57:49;21.70;79.60
364;DHT22;173;48.718;9.274;2022-09-01T10:00:29;21.90;80.10
364;DHT22;173;48.718;9.274;2022-09-01T10:03:08;21.80;79.60
364;DHT22;173;48.718;9.274;2022-09-01T10:05:44;22.00;74.90
364;DHT22;173;48.718;9.274;2022-09-01T10:08:39;22.20;75.70
364;DHT22;173;48.718;9.274;2022-09-01T10:14:03;22.70;76.20
364;DHT22;173;48.718;9.274;2022-09-01T10:16:37;22.80;75.70
364;DHT22;173;48.718;9.274;2022-09-01T10:19:13;22.50;74.70
364;DHT22;173;48.718;9.274;2022-09-01T10:21:47;21.90;76.40
364;DHT22;173;48.718;9.274;2022-09-01T10:24:28;21.90;76.50
364;DHT22;173;48.718;9.274;2022-09-01T10:27:18;22.10;77.00
364;DHT22;173;48.718;9.274;2022-09-01T10:32:54;22.20;75.00
364;DHT22;173;48.718;9.274;2022-09-01T10:35:31;22.50;75.30
364;DHT22;173;48.718;9.274;2022-09-01T10:38:09;22.70;74.80
364;DHT22;173;48.718;9.274;2022-09-01T10:40:48;22.60;74.10
364;DHT22;173;48.718;9.274;2022-09-01T10:43:49;22.20;74.20
364;DHT22;173;48.718;9.274;2022-09-01T10:49:00;22.10;74.80
364;DHT22;173;48.718;9.274;2022-09-01T10:51:40;22.50;73.80
364;DHT22;173;48.718;9.274;2022-09-01T10:54:47;22.60;73.50
364;DHT22;173;48.718;9.274;2022-09-01T10:57:25;23.30;73.10
364;DHT22;173;48.718;9.274;2022-09-01T10:59:52;23.50;70.40
364;DHT22;173;48.718;9.274;2022-09-01T11:02:23;22.90;70.70
364;DHT22;173;48.718;9.274;2022-09-01T11:07:36;23.00;74.60
364;DHT22;173;48.718;9.274;2022-09-01T11:15:50;23.90;69.40
364;DHT22;173;48.718;9.274;2022-09-01T11:18:27;23.80;69.00
364;DHT22;173;48.718;9.274;2022-09-01T11:21:15;23.10;70.10
364;DHT22;173;48.718;9.274;2022-09-01T11:27:54;22.70;73.90
364;DHT22;173;48.718;9.274;2022-09-01T11:30:06;22.80;73.50
364;DHT22;173;48.718;9.274;2022-09-01T11:32:41;23.10;74.20
364;DHT22;173;48.718;9.274;2022-09-01T11:35:20;23.40;72.00
364;DHT22;173;48.718;9.274;2022-09-01T11:37:55;24.40;72.80
364;DHT22;173;48.718;9.274;2022-09-01T11:40:32;24.80;68.40
364;DHT22;173;48.718;9.274;2022-09-01T11:43:07;25.50;67.30
364;DHT22;173;48.718;9.274;2022-09-01T11:48:26;25.20;66.60
364;DHT22;173;48.718;9.274;2022-09-01T11:51:00;25.10;66.30
364;DHT22;173;48.718;9.274;2022-09-01T11:53:33;25.60;66.20
364;DHT22;173;48.718;9.274;2022-09-01T11:56:17;26.00;66.00
364;DHT22;173;48.718;9.274;2022-09-01T11:58:51;27.10;62.10
364;DHT22;173;48.718;9.274;2022-09-01T12:01:35;27.00;59.90
364;DHT22;173;48.718;9.274;2022-09-01T12:04:25;26.30;59.50
364;DHT22;173;48.718;9.274;2022-09-01T12:15:15;28.20;58.30
364;DHT22;173;48.718;9.274;2022-09-01T12:18:03;27.90;55.70
364;DHT22;173;48.718;9.274;2022-09-01T12:20:41;27.30;57.10
364;DHT22;173;48.718;9.274;2022-09-01T12:26:08;26.30;61.40
364;DHT22;173;48.718;9.274;2022-09-01T12:28:42;26.90;57.70
364;DHT22;173;48.718;9.274;2022-09-01T12:31:19;26.90;59.20
364;DHT22;173;48.718;9.274;2022-09-01T12:33:54;28.10;59.00
364;DHT22;173;48.718;9.274;2022-09-01T12:36:36;28.50;56.80
364;DHT22;173;48.718;9.274;2022-09-01T12:39:24;27.60;58.70
364;DHT22;173;48.718;9.274;2022-09-01T12:42:08;27.20;60.30
364;DHT22;173;48.718;9.274;2022-09-01T12:44:59;26.20;61.70
364;DHT22;173;48.718;9.274;2022-09-01T12:53:00;24.50;65.60
364;DHT22;173;48.718;9.274;2022-09-01T12:55:34;24.60;64.10
364;DHT22;173;48.718;9.274;2022-09-01T13:00:52;24.80;62.80
364;DHT22;173;48.718;9.274;2022-09-01T13:03:11;24.90;62.10
364;DHT22;173;48.718;9.274;2022-09-01T13:05:50;24.60;61.10
364;DHT22;173;48.718;9.274;2022-09-01T13:08:25;24.30;62.90
364;DHT22;173;48.718;9.274;2022-09-01T13:11:05;24.00;64.30
364;DHT22;173;48.718;9.274;2022-09-01T13:13:40;24.40;62.40
364;DHT22;173;48.718;9.274;2022-09-01T13:16:13;24.80;65.80
364;DHT22;173;48.718;9.274;2022-09-01T13:18:46;25.40;61.80
364;DHT22;173;48.718;9.274;2022-09-01T13:21:17;26.40;60.70
364;DHT22;173;48.718;9.274;2022-09-01T13:23:49;26.80;58.80
364;DHT22;173;48.718;9.274;2022-09-01T13:26:22;26.70;57.50
364;DHT22;173;48.718;9.274;2022-09-01T13:28:56;26.40;59.80
364;DHT22;173;48.718;9.274;2022-09-01T13:31:29;26.10;61.30
364;DHT22;173;48.718;9.274;2022-09-01T13:34:01;26.00;61.30
364;DHT22;173;48.718;9.274;2022-09-01T13:36:33;25.80;62.00
364;DHT22;173;48.718;9.274;2022-09-01T13:39:03;25.60;61.20
364;DHT22;173;48.718;9.274;2022-09-01T13:41:35;25.40;62.30
364;DHT22;173;48.718;9.274;2022-09-01T13:44:07;25.00;62.30
364;DHT22;173;48.718;9.274;2022-09-01T13:46:38;24.30;65.30
364;DHT22;173;48.718;9.274;2022-09-01T13:49:10;24.50;64.70
364;DHT22;173;48.718;9.274;2022-09-01T13:51:42;26.00;62.40
364;DHT22;173;48.718;9.274;2022-09-01T13:54:15;27.60;57.70
364;DHT22;173;48.718;9.274;2022-09-01T13:57:15;28.00;54.30
364;DHT22;173;48.718;9.274;2022-09-01T14:02:05;27.40;55.40
364;DHT22;173;48.718;9.274;2022-09-01T14:04:37;26.60;60.50
364;DHT22;173;48.718;9.274;2022-09-01T14:07:09;26.70;60.00
364;DHT22;173;48.718;9.274;2022-09-01T14:09:42;26.90;59.10
364;DHT22;173;48.718;9.274;2022-09-01T14:12:15;26.40;59.80
364;DHT22;173;48.718;9.274;2022-09-01T14:14:47;26.20;59.90
364;DHT22;173;48.718;9.274;2022-09-01T14:17:19;26.30;60.00
364;DHT22;173;48.718;9.274;2022-09-01T14:19:51;26.50;58.70
364;DHT22;173;48.718;9.274;2022-09-01T14:22:24;26.60;57.20
364;DHT22;173;48.718;9.274;2022-09-01T14:27:12;26.90;55.20
364;DHT22;173;48.718;9.274;2022-09-01T14:29:47;28.40;52.00
364;DHT22;173;48.718;9.274;2022-09-01T14:32:20;28.70;50.50
364;DHT22;173;48.718;9.274;2022-09-01T14:34:54;28.90;50.30
364;DHT22;173;48.718;9.274;2022-09-01T14:37:26;27.90;50.80
364;DHT22;173;48.718;9.274;2022-09-01T14:39:58;28.50;52.10
364;DHT22;173;48.718;9.274;2022-09-01T14:42:31;29.00;48.50
364;DHT22;173;48.718;9.274;2022-09-01T14:45:08;29.30;50.80
364;DHT22;173;48.718;9.274;2022-09-01T14:47:43;29.40;47.90
364;DHT22;173;48.718;9.274;2022-09-01T14:50:17;29.30;50.60
364;DHT22;173;48.718;9.274;2022-09-01T14:52:52;29.00;49.70
364;DHT22;173;48.718;9.274;2022-09-01T14:55:27;28.70;47.50
364;DHT22;173;48.718;9.274;2022-09-01T14:58:00;28.80;49.30
364;DHT22;173;48.718;9.274;2022-09-01T15:00:32;28.70;48.00
364;DHT22;173;48.718;9.274;2022-09-01T15:05:29;28.50;50.60
364;DHT22;173;48.718;9.274;2022-09-01T15:08:01;28.40;49.00
364;DHT22;173;48.718;9.274;2022-09-01T15:10:33;28.20;49.60
364;DHT22;173;48.718;9.274;2022-09-01T15:13:05;28.20;49.50
364;DHT22;173;48.718;9.274;2022-09-01T15:15:38;28.30;50.60
364;DHT22;173;48.718;9.274;2022-09-01T15:18:10;28.80;49.40
364;DHT22;173;48.718;9.274;2022-09-01T15:20:43;28.30;48.90
364;DHT22;173;48.718;9.274;2022-09-01T15:23:22;28.40;49.70
364;DHT22;173;48.718;9.274;2022-09-01T15:25:56;28.00;49.70
364;DHT22;173;48.718;9.274;2022-09-01T15:28:28;28.10;49.60
364;DHT22;173;48.718;9.274;2022-09-01T15:31:00;28.40;49.40
364;DHT22;173;48.718;9.274;2022-09-01T15:33:32;28.60;49.00
364;DHT22;173;48.718;9.274;2022-09-01T15:36:05;28.50;50.60
364;DHT22;173;48.718;9.274;2022-09-01T15:38:37;28.00;51.10
364;DHT22;173;48.718;9.274;2022-09-01T15:41:14;28.00;51.80
364;DHT22;173;48.718;9.274;2022-09-01T15:43:47;28.50;49.90
364;DHT22;173;48.718;9.274;2022-09-01T15:46:20;28.20;49.90
364;DHT22;173;48.718;9.274;2022-09-01T15:48:58;28.00;50.80
364;DHT22;173;48.718;9.274;2022-09-01T15:51:37;26.70;53.10
364;DHT22;173;48.718;9.274;2022-09-01T15:54:13;26.30;54.60
364;DHT22;173;48.718;9.274;2022-09-01T15:56:45;25.20;57.20
364;DHT22;173;48.718;9.274;2022-09-01T15:59:16;24.80;58.20
364;DHT22;173;48.718;9.274;2022-09-01T16:01:48;24.30;59.80
364;DHT22;173;48.718;9.274;2022-09-01T16:04:21;24.00;60.10
364;DHT22;173;48.718;9.274;2022-09-01T16:06:53;23.80;60.50
364;DHT22;173;48.718;9.274;2022-09-01T16:09:25;23.90;61.50
364;DHT22;173;48.718;9.274;2022-09-01T16:11:57;24.10;61.80
364;DHT22;173;48.718;9.274;2022-09-01T16:14:29;24.00;61.50
364;DHT22;173;48.718;9.274;2022-09-01T16:17:18;24.00;60.70
364;DHT22;173;48.718;9.274;2022-09-01T16:19:58;23.80;62.00
364;DHT22;173;48.718;9.274;2022-09-01T16:22:52;23.80;61.90
364;DHT22;173;48.718;9.274;2022-09-01T16:25:31;23.80;61.70
364;DHT22;173;48.718;9.274;2022-09-01T16:28:09;23.90;63.10
364;DHT22;173;48.718;9.274;2022-09-01T16:30:41;24.40;60.50
364;DHT22;173;48.718;9.274;2022-09-01T16:33:14;24.80;60.20
364;DHT22;173;48.718;9.274;2022-09-01T16:36:09;24.90;60.10
364;DHT22;173;48.718;9.274;2022-09-01T16:41:40;25.40;59.50
364;DHT22;173;48.718;9.274;2022-09-01T16:44:20;25.10;59.60
364;DHT22;173;48.718;9.274;2022-09-01T16:47:16;24.50;61.20
364;DHT22;173;48.718;9.274;2022-09-01T16:56:00;23.50;64.10
364;DHT22;173;48.718;9.274;2022-09-01T17:09:20;23.00;65.80
364;DHT22;173;48.718;9.274;2022-09-01T17:12:24;22.70;66.60
364;DHT22;173;48.718;9.274;2022-09-01T17:18:02;22.60;66.30
364;DHT22;173;48.718;9.274;2022-09-01T17:20:29;22.70;66.50
364;DHT22;173;48.718;9.274;2022-09-01T17:22:59;22.50;66.70
364;DHT22;173;48.718;9.274;2022-09-01T17:25:32;22.20;66.50
364;DHT22;173;48.718;9.274;2022-09-01T17:28:29;22.30;66.10
364;DHT22;173;48.718;9.274;2022-09-01T17:31:13;22.30;65.70
364;DHT22;173;48.718;9.274;2022-09-01T17:45:38;22.10;68.30
364;DHT22;173;48.718;9.274;2022-09-01T17:48:20;22.00;68.90
364;DHT22;173;48.718;9.274;2022-09-01T17:54:29;22.10;66.90
364;DHT22;173;48.718;9.274;2022-09-01T17:57:24;22.10;68.40
364;DHT22;173;48.718;9.274;2022-09-01T18:02:55;21.90;70.00
364;DHT22;173;48.718;9.274;2022-09-01T18:08:43;21.80;71.20
364;DHT22;173;48.718;9.274;2022-09-01T18:11:22;21.60;71.00
364;DHT22;173;48.718;9.274;2022-09-01T18:14:06;21.60;71.40
364;DHT22;173;48.718;9.274;2022-09-01T18:19:23;21.70;70.80
364;DHT22;173;48.718;9.274;2022-09-01T18:22:06;21.70;70.60
364;DHT22;173;48.718;9.274;2022-09-01T18:27:26;21.50;73.00
364;DHT22;173;48.718;9.274;2022-09-01T18:29:59;21.30;73.90
364;DHT22;173;48.718;9.274;2022-09-01T18:32:44;21.10;74.50
364;DHT22;173;48.718;9.274;2022-09-01T18:39:04;20.80;75.60
364;DHT22;173;48.718;9.274;2022-09-01T18:44:38;20.50;77.40
364;DHT22;173;48.718;9.274;2022-09-01T18:47:12;20.20;77.70
364;DHT22;173;48.718;9.274;2022-09-01T18:50:19;20.10;78.20
364;DHT22;173;48.718;9.274;2022-09-01T18:55:42;20.10;78.20
364;DHT22;173;48.718;9.274;2022-09-01T19:01:55;20.10;78.40
364;DHT22;173;48.718;9.274;2022-09-01T19:04:29;19.90;78.60
364;DHT22;173;48.718;9.274;2022-09-01T19:07:41;19.80;79.30
364;DHT22;173;48.718;9.274;2022-09-01T19:10:17;19.70;79.50
364;DHT22;173;48.718;9.274;2022-09-01T19:13:04;19.70;79.50
364;DHT22;173;48.718;9.274;2022-09-01T19:18:57;19.60;79.80
364;DHT22;173;48.718;9.274;2022-09-01T19:21:31;19.50;80.20
364;DHT22;173;48.718;9.274;2022-09-01T19:24:08;19.30;80.40
364;DHT22;173;48.718;9.274;2022-09-01T19:26:44;19.30;81.10
364;DHT22;173;48.718;9.274;2022-09-01T19:29:30;19.20;81.30
364;DHT22;173;48.718;9.274;2022-09-01T19:32:04;19.10;81.30
364;DHT22;173;48.718;9.274;2022-09-01T19:34:40;19.10;81.70
364;DHT22;173;48.718;9.274;2022-09-01T19:37:18;19.20;81.40
364;DHT22;173;48.718;9.274;2022-09-01T19:39:49;19.00;81.40
364;DHT22;173;48.718;9.274;2022-09-01T19:48:25;19.00;81.60
364;DHT22;173;48.718;9.274;2022-09-01T19:56:51;18.80;82.90
364;DHT22;173;48.718;9.274;2022-09-01T19:59:45;18.60;83.00
364;DHT22;173;48.718;9.274;2022-09-01T20:02:29;18.50;83.10